sensor_id;sensor_type;location;lat;lon;timestamp;pressure;altitude;pressure_sealevel;temperature;humidity
12349;BME280;5974;42.710;27.258;2023-05-25T00:02:22;100060.16;;;13.40;100.00
12349;BME280;5974;42.710;27.258;2023-05-25T00:04:50;100061.41;;;13.33;100.00
12349;BME280;5974;42.710;27.258;2023-05-25T00:07:17;100060.69;;;13.29;100.00
12349;BME280;5974;42.710;27.258;2023-05-25T00:09:44;100060.69;;;13.29;100.00
12349;BME280;5974;42.710;27.258;2023-05-25T00:12:11;100064.34;;;13.27;100.00
12349;BME280;5974;42.710;27.258;2023-05-25T00:14:38;100059.19;;;13.25;100.00
12349;BME280;5974;42.710;27.258;2023-05-25T00:17:06;100074.94;;;13.25;100.00
12349;BME280;5974;42.710;27.258;2023-05-25T00:19:35;100078.03;;;13.16;100.00
12349;BME280;5974;42.710;27.258;2023-05-25T00:22:02;100074.69;;;13.30;100.00
12349;BME280;5974;42.710;27.258;2023-05-25T00:24:30;100069.38;;;13.31;100.00
12349;BME280;5974;42.710;27.258;2023-05-25T00:26:57;100074.38;;;13.36;100.00
12349;BME280;5974;42.710;27.258;2023-05-25T00:29:24;100062.75;;;13.07;100.00
12349;BME280;5974;42.710;27.258;2023-05-25T00:31:51;100065.34;;;13.24;100.00
12349;BME280;5974;42.710;27.258;2023-05-25T00:34:19;100066.47;;;13.36;100.00
12349;BME280;5974;42.710;27.258;2023-05-25T00:36:47;100068.25;;;13.35;100.00
12349;BME280;5974;42.710;27.258;2023-05-25T00:39:14;100063.78;;;13.37;100.00
12349;BME280;5974;42.710;27.258;2023-05-25T00:41:42;100061.31;;;13.34;100.00
12349;BME280;5974;42.710;27.258;2023-05-25T00:44:10;100066.41;;;13.37;100.00
12349;BME280;5974;42.710;27.258;2023-05-25T00:46:44;100065.19;;;13.27;100.00
12349;BME280;5974;42.710;27.258;2023-05-25T00:49:14;100057.41;;;13.26;100.00
12349;BME280;5974;42.710;27.258;2023-05-25T00:51:43;100052.38;;;13.21;100.00
12349;BME280;5974;42.710;27.258;2023-05-25T00:54:11;100055.94;;;13.20;100.00
12349;BME280;5974;42.710;27.258;2023-05-25T00:56:41;100064.44;;;12.57;100.00
12349;BME280;5974;42.710;27.258;2023-05-25T00:59:11;100068.59;;;11.89;100.00
12349;BME280;5974;42.710;27.258;2023-05-25T01:01:40;100079.94;;;11.89;100.00
12349;BME280;5974;42.710;27.258;2023-05-25T01:04:10;100072.50;;;12.35;100.00
12349;BME280;5974;42.710;27.258;2023-05-25T01:06:44;100072.44;;;12.36;100.00
12349;BME280;5974;42.710;27.258;2023-05-25T01:09:15;100066.00;;;12.61;100.00
12349;BME280;5974;42.710;27.258;2023-05-25T01:11:47;100062.59;;;12.76;100.00
12349;BME280;5974;42.710;27.258;2023-05-25T01:14:17;100055.34;;;12.64;100.00
12349;BME280;5974;42.710;27.258;2023-05-25T01:16:45;100059.88;;;12.60;100.00
12349;BME280;5974;42.710;27.258;2023-05-25T01:19:12;100029.09;;;12.46;100.00
12349;BME280;5974;42.710;27.258;2023-05-25T01:21:44;100056.00;;;12.50;100.00
12349;BME280;5974;42.710;27.258;2023-05-25T01:24:16;100021.13;;;12.31;100.00
12349;BME280;5974;42.710;27.258;2023-05-25T01:26:51;100064.59;;;12.54;100.00
12349;BME280;5974;42.710;27.258;2023-05-25T01:29:20;100058.19;;;12.42;100.00
12349;BME280;5974;42.710;27.258;2023-05-25T01:31:49;100061.09;;;12.36;100.00
12349;BME280;5974;42.710;27.258;2023-05-25T01:34:18;100056.38;;;12.25;100.00
12349;BME280;5974;42.710;27.258;2023-05-25T01:36:46;100054.53;;;12.27;100.00
12349;BME280;5974;42.710;27.258;2023-05-25T01:39:14;100051.22;;;12.24;100.00
12349;BME280;5974;42.710;27.258;2023-05-25T01:41:41;100046.56;;;12.12;100.00
12349;BME280;5974;42.710;27.258;2023-05-25T01:44:08;100056.13;;;11.94;100.00
12349;BME280;5974;42.710;27.258;2023-05-25T01:46:37;100063.41;;;12.06;100.00
12349;BME280;5974;42.710;27.258;2023-05-25T01:49:13;100066.81;;;12.08;100.00
12349;BME280;5974;42.710;27.258;2023-05-25T01:51:52;100063.75;;;12.17;100.00
12349;BME280;5974;42.710;27.258;2023-05-25T01:54:27;100060.63;;;12.09;100.00
12349;BME280;5974;42.710;27.258;2023-05-25T01:56:57;100060.34;;;12.15;100.00
12349;BME280;5974;42.710;27.258;2023-05-25T01:59:27;100047.63;;;12.08;100.00
12349;BME280;5974;42.710;27.258;2023-05-25T02:01:56;100065.59;;;12.15;100.00
12349;BME280;5974;42.710;27.258;2023-05-25T02:04:24;100024.25;;;11.84;100.00
12349;BME280;5974;42.710;27.258;2023-05-25T02:06:53;100058.69;;;11.95;100.00
12349;BME280;5974;42.710;27.258;2023-05-25T02:09:20;100071.81;;;12.13;100.00
12349;BME280;5974;42.710;27.258;2023-05-25T02:11:47;100076.16;;;12.14;100.00
12349;BME280;5974;42.710;27.258;2023-05-25T02:14:14;100069.75;;;12.19;100.00
12349;BME280;5974;42.710;27.258;2023-05-25T02:16:41;100075.25;;;12.15;100.00
12349;BME280;5974;42.710;27.258;2023-05-25T02:19:10;100078.31;;;11.87;100.00
12349;BME280;5974;42.710;27.258;2023-05-25T02:21:39;100085.44;;;12.02;100.00
12349;BME280;5974;42.710;27.258;2023-05-25T02:24:08;100087.84;;;12.07;100.00
12349;BME280;5974;42.710;27.258;2023-05-25T02:26:35;100086.69;;;12.12;100.00
12349;BME280;5974;42.710;27.258;2023-05-25T02:29:02;100088.97;;;12.20;100.00
12349;BME280;5974;42.710;27.258;2023-05-25T02:31:29;100090.72;;;12.19;100.00
12349;BME280;5974;42.710;27.258;2023-05-25T02:33:56;100084.72;;;12.17;100.00
12349;BME280;5974;42.710;27.258;2023-05-25T02:36:23;100086.34;;;12.20;100.00
12349;BME280;5974;42.710;27.258;2023-05-25T02:38:50;100094.50;;;12.14;100.00
12349;BME280;5974;42.710;27.258;2023-05-25T02:41:19;100094.13;;;12.21;100.00
12349;BME280;5974;42.710;27.258;2023-05-25T02:43:46;100049.34;;;11.90;100.00
12349;BME280;5974;42.710;27.258;2023-05-25T02:46:13;100085.44;;;12.21;100.00
12349;BME280;5974;42.710;27.258;2023-05-25T02:48:40;100088.63;;;12.27;100.00
12349;BME280;5974;42.710;27.258;2023-05-25T02:51:07;100083.22;;;12.30;100.00
12349;BME280;5974;42.710;27.258;2023-05-25T02:53:34;100086.59;;;12.32;100.00
12349;BME280;5974;42.710;27.258;2023-05-25T02:56:01;100094.25;;;12.37;100.00
12349;BME280;5974;42.710;27.258;2023-05-25T02:58:30;100090.56;;;12.41;100.00
12349;BME280;5974;42.710;27.258;2023-05-25T03:00:57;100071.75;;;12.50;100.00
12349;BME280;5974;42.710;27.258;2023-05-25T03:03:25;100092.28;;;12.59;100.00
12349;BME280;5974;42.710;27.258;2023-05-25T03:05:52;100099.31;;;12.76;100.00
12349;BME280;5974;42.710;27.258;2023-05-25T03:08:19;100091.16;;;12.82;100.00
12349;BME280;5974;42.710;27.258;2023-05-25T03:10:46;100081.03;;;12.91;100.00
12349;BME280;5974;42.710;27.258;2023-05-25T03:13:12;100084.28;;;13.14;100.00
12349;BME280;5974;42.710;27.258;2023-05-25T03:15:41;100084.28;;;12.96;100.00
12349;BME280;5974;42.710;27.258;2023-05-25T03:18:08;100084.00;;;12.32;100.00
12349;BME280;5974;42.710;27.258;2023-05-25T03:20:35;100092.97;;;12.45;100.00
12349;BME280;5974;42.710;27.258;2023-05-25T03:23:01;100091.28;;;12.96;100.00
12349;BME280;5974;42.710;27.258;2023-05-25T03:25:28;100095.78;;;12.94;100.00
12349;BME280;5974;42.710;27.258;2023-05-25T03:27:55;100098.38;;;13.45;100.00
12349;BME280;5974;42.710;27.258;2023-05-25T03:30:22;100096.16;;;13.86;100.00
12349;BME280;5974;42.710;27.258;2023-05-25T03:32:51;100094.81;;;14.10;100.00
12349;BME280;5974;42.710;27.258;2023-05-25T03:35:18;100092.94;;;14.28;100.00
12349;BME280;5974;42.710;27.258;2023-05-25T03:37:44;100094.38;;;14.49;100.00
12349;BME280;5974;42.710;27.258;2023-05-25T03:40:11;100079.16;;;14.70;100.00
12349;BME280;5974;42.710;27.258;2023-05-25T03:42:38;100076.88;;;14.94;100.00
12349;BME280;5974;42.710;27.258;2023-05-25T03:45:06;100072.03;;;15.16;100.00
12349;BME280;5974;42.710;27.258;2023-05-25T03:47:34;100064.69;;;15.35;100.00
12349;BME280;5974;42.710;27.258;2023-05-25T03:50:03;100069.63;;;15.55;100.00
12349;BME280;5974;42.710;27.258;2023-05-25T03:52:30;100069.69;;;15.82;100.00
12349;BME280;5974;42.710;27.258;2023-05-25T03:54:57;100053.13;;;15.80;100.00
12349;BME280;5974;42.710;27.258;2023-05-25T03:57:26;100073.41;;;16.06;100.00
12349;BME280;5974;42.710;27.258;2023-05-25T03:59:52;100063.47;;;16.77;100.00
12349;BME280;5974;42.710;27.258;2023-05-25T04:02:19;100060.50;;;17.59;100.00
12349;BME280;5974;42.710;27.258;2023-05-25T04:04:46;100051.00;;;18.53;100.00
12349;BME280;5974;42.710;27.258;2023-05-25T04:07:16;100037.53;;;21.08;100.00
12349;BME280;5974;42.710;27.258;2023-05-25T04:09:43;100029.97;;;23.19;100.00
12349;BME280;5974;42.710;27.258;2023-05-25T04:12:10;100030.66;;;25.78;93.41
12349;BME280;5974;42.710;27.258;2023-05-25T04:14:37;100030.94;;;28.63;75.49
12349;BME280;5974;42.710;27.258;2023-05-25T04:17:04;100035.00;;;30.79;62.91
12349;BME280;5974;42.710;27.258;2023-05-25T04:19:31;100025.88;;;32.04;56.64
12349;BME280;5974;42.710;27.258;2023-05-25T04:21:58;100033.88;;;33.83;52.12
12349;BME280;5974;42.710;27.258;2023-05-25T04:24:26;100033.03;;;34.33;48.54
12349;BME280;5974;42.710;27.258;2023-05-25T04:26:53;100042.78;;;34.78;46.81
12349;BME280;5974;42.710;27.258;2023-05-25T04:29:21;100033.69;;;36.43;43.79
12349;BME280;5974;42.710;27.258;2023-05-25T04:31:47;100038.47;;;37.70;41.41
12349;BME280;5974;42.710;27.258;2023-05-25T04:34:15;100043.94;;;37.70;41.04
12349;BME280;5974;42.710;27.258;2023-05-25T04:36:42;100041.78;;;37.72;39.94
12349;BME280;5974;42.710;27.258;2023-05-25T04:39:09;100042.31;;;37.46;39.77
12349;BME280;5974;42.710;27.258;2023-05-25T04:41:37;100045.19;;;36.98;39.48
12349;BME280;5974;42.710;27.258;2023-05-25T04:44:05;100051.03;;;34.21;43.19
12349;BME280;5974;42.710;27.258;2023-05-25T04:46:32;100048.47;;;34.70;42.50
12349;BME280;5974;42.710;27.258;2023-05-25T04:49:02;100054.63;;;33.24;44.34
12349;BME280;5974;42.710;27.258;2023-05-25T04:51:29;100048.38;;;32.91;46.20
12349;BME280;5974;42.710;27.258;2023-05-25T04:53:56;100050.75;;;34.42;43.78
12349;BME280;5974;42.710;27.258;2023-05-25T04:56:24;100051.06;;;35.15;42.67
12349;BME280;5974;42.710;27.258;2023-05-25T04:58:52;100047.03;;;37.27;40.85
12349;BME280;5974;42.710;27.258;2023-05-25T05:01:19;100055.47;;;35.16;41.59
12349;BME280;5974;42.710;27.258;2023-05-25T05:03:46;100053.31;;;32.01;46.17
12349;BME280;5974;42.710;27.258;2023-05-25T05:06:13;100051.91;;;32.05;46.72
12349;BME280;5974;42.710;27.258;2023-05-25T05:08:40;100052.91;;;30.44;49.73
12349;BME280;5974;42.710;27.258;2023-05-25T05:11:07;100051.41;;;32.55;48.00
12349;BME280;5974;42.710;27.258;2023-05-25T05:13:34;100056.78;;;35.07;45.55
12349;BME280;5974;42.710;27.258;2023-05-25T05:16:03;100058.59;;;35.62;44.22
12349;BME280;5974;42.710;27.258;2023-05-25T05:18:30;100064.97;;;33.87;45.94
12349;BME280;5974;42.710;27.258;2023-05-25T05:20:56;100058.81;;;33.20;47.14
12349;BME280;5974;42.710;27.258;2023-05-25T05:23:24;100060.50;;;35.37;44.84
12349;BME280;5974;42.710;27.258;2023-05-25T05:25:51;100059.97;;;35.28;44.02
12349;BME280;5974;42.710;27.258;2023-05-25T05:28:17;100057.63;;;33.87;46.60
12349;BME280;5974;42.710;27.258;2023-05-25T05:30:44;100054.91;;;33.94;46.28
12349;BME280;5974;42.710;27.258;2023-05-25T05:33:13;100057.59;;;35.07;44.44
12349;BME280;5974;42.710;27.258;2023-05-25T05:35:40;100063.03;;;35.07;44.53
12349;BME280;5974;42.710;27.258;2023-05-25T05:38:07;100069.03;;;34.53;45.39
12349;BME280;5974;42.710;27.258;2023-05-25T05:40:35;100074.63;;;32.78;47.32
12349;BME280;5974;42.710;27.258;2023-05-25T05:43:02;100069.03;;;35.83;44.29
12349;BME280;5974;42.710;27.258;2023-05-25T05:45:29;100074.16;;;35.92;43.51
12349;BME280;5974;42.710;27.258;2023-05-25T05:47:55;100077.69;;;36.28;43.38
12349;BME280;5974;42.710;27.258;2023-05-25T05:50:24;100071.69;;;36.38;43.33
12349;BME280;5974;42.710;27.258;2023-05-25T05:52:51;100071.94;;;39.35;38.70
12349;BME280;5974;42.710;27.258;2023-05-25T05:55:18;100077.16;;;37.79;41.15
12349;BME280;5974;42.710;27.258;2023-05-25T05:57:45;100083.09;;;37.99;40.64
12349;BME280;5974;42.710;27.258;2023-05-25T06:00:14;100075.50;;;37.66;40.89
12349;BME280;5974;42.710;27.258;2023-05-25T06:02:41;100074.91;;;37.18;41.65
12349;BME280;5974;42.710;27.258;2023-05-25T06:05:08;100072.81;;;36.78;41.98
12349;BME280;5974;42.710;27.258;2023-05-25T06:07:37;100073.47;;;35.78;44.08
12349;BME280;5974;42.710;27.258;2023-05-25T06:10:04;100059.38;;;36.65;42.78
12349;BME280;5974;42.710;27.258;2023-05-25T06:12:31;100064.59;;;37.66;41.26
12349;BME280;5974;42.710;27.258;2023-05-25T06:14:58;100069.56;;;37.92;40.00
12349;BME280;5974;42.710;27.258;2023-05-25T06:17:26;100075.28;;;40.14;39.03
12349;BME280;5974;42.710;27.258;2023-05-25T06:19:54;100084.16;;;38.94;38.06
12349;BME280;5974;42.710;27.258;2023-05-25T06:22:21;100076.25;;;39.15;39.50
12349;BME280;5974;42.710;27.258;2023-05-25T06:24:51;100068.03;;;39.48;38.51
12349;BME280;5974;42.710;27.258;2023-05-25T06:27:18;100074.63;;;40.82;36.81
12349;BME280;5974;42.710;27.258;2023-05-25T06:29:45;100078.16;;;39.14;38.20
12349;BME280;5974;42.710;27.258;2023-05-25T06:32:12;100077.75;;;39.22;38.14
12349;BME280;5974;42.710;27.258;2023-05-25T06:34:38;100074.34;;;37.62;39.52
12349;BME280;5974;42.710;27.258;2023-05-25T06:37:06;100071.50;;;37.45;40.90
12349;BME280;5974;42.710;27.258;2023-05-25T06:39:32;100075.28;;;36.80;41.30
12349;BME280;5974;42.710;27.258;2023-05-25T06:42:01;100076.03;;;39.33;38.77
12349;BME280;5974;42.710;27.258;2023-05-25T06:44:27;100069.50;;;39.72;38.18
12349;BME280;5974;42.710;27.258;2023-05-25T06:46:54;100076.13;;;40.68;36.86
12349;BME280;5974;42.710;27.258;2023-05-25T06:49:21;100072.22;;;40.91;35.94
12349;BME280;5974;42.710;27.258;2023-05-25T06:51:48;100074.25;;;40.20;37.52
12349;BME280;5974;42.710;27.258;2023-05-25T06:54:15;100070.84;;;39.70;38.48
12349;BME280;5974;42.710;27.258;2023-05-25T06:56:44;100074.38;;;40.84;36.29
12349;BME280;5974;42.710;27.258;2023-05-25T06:59:12;100055.44;;;37.95;38.55
12349;BME280;5974;42.710;27.258;2023-05-25T07:01:39;100071.09;;;38.00;39.77
12349;BME280;5974;42.710;27.258;2023-05-25T07:04:06;100072.03;;;38.90;39.71
12349;BME280;5974;42.710;27.258;2023-05-25T07:06:33;100068.06;;;37.62;39.58
12349;BME280;5974;42.710;27.258;2023-05-25T07:09:00;100077.06;;;37.74;40.60
12349;BME280;5974;42.710;27.258;2023-05-25T07:11:27;100073.81;;;37.88;38.80
12349;BME280;5974;42.710;27.258;2023-05-25T07:13:54;100083.53;;;38.47;39.00
12349;BME280;5974;42.710;27.258;2023-05-25T07:16:22;100083.34;;;40.04;37.90
12349;BME280;5974;42.710;27.258;2023-05-25T07:18:50;100086.16;;;41.95;35.30
12349;BME280;5974;42.710;27.258;2023-05-25T07:21:17;100084.50;;;40.83;35.61
12349;BME280;5974;42.710;27.258;2023-05-25T07:23:44;100082.63;;;38.59;39.18
12349;BME280;5974;42.710;27.258;2023-05-25T07:26:12;100080.94;;;37.78;40.83
12349;BME280;5974;42.710;27.258;2023-05-25T07:28:39;100080.50;;;35.67;41.47
12349;BME280;5974;42.710;27.258;2023-05-25T07:31:06;100085.78;;;38.95;39.88
12349;BME280;5974;42.710;27.258;2023-05-25T07:33:35;100077.25;;;39.42;38.92
12349;BME280;5974;42.710;27.258;2023-05-25T07:36:01;100047.38;;;37.66;38.87
12349;BME280;5974;42.710;27.258;2023-05-25T07:38:28;100076.03;;;38.15;38.30
12349;BME280;5974;42.710;27.258;2023-05-25T07:40:55;100074.47;;;34.09;43.37
12349;BME280;5974;42.710;27.258;2023-05-25T07:43:22;100041.09;;;37.65;34.12
12349;BME280;5974;42.710;27.258;2023-05-25T07:45:49;100075.50;;;40.61;31.83
12349;BME280;5974;42.710;27.258;2023-05-25T07:48:16;100082.31;;;39.00;32.67
12349;BME280;5974;42.710;27.258;2023-05-25T07:50:44;100084.03;;;38.89;32.90
12349;BME280;5974;42.710;27.258;2023-05-25T07:53:11;100075.59;;;36.12;35.74
12349;BME280;5974;42.710;27.258;2023-05-25T07:55:38;100076.34;;;34.59;38.07
12349;BME280;5974;42.710;27.258;2023-05-25T07:58:05;100071.09;;;32.16;40.70
12349;BME280;5974;42.710;27.258;2023-05-25T08:00:33;100067.41;;;31.00;42.80
12349;BME280;5974;42.710;27.258;2023-05-25T08:02:59;100059.47;;;30.56;43.51
12349;BME280;5974;42.710;27.258;2023-05-25T08:05:27;100062.19;;;30.20;43.85
12349;BME280;5974;42.710;27.258;2023-05-25T08:07:55;100019.75;;;28.97;44.94
12349;BME280;5974;42.710;27.258;2023-05-25T08:10:22;100053.09;;;29.11;46.35
12349;BME280;5974;42.710;27.258;2023-05-25T08:12:55;100054.66;;;28.90;47.29
12349;BME280;5974;42.710;27.258;2023-05-25T08:15:22;100045.94;;;28.35;46.66
12349;BME280;5974;42.710;27.258;2023-05-25T08:17:49;100054.44;;;28.46;47.67
12349;BME280;5974;42.710;27.258;2023-05-25T08:20:16;100057.19;;;29.07;46.72
12349;BME280;5974;42.710;27.258;2023-05-25T08:22:43;100040.81;;;28.71;46.18
12349;BME280;5974;42.710;27.258;2023-05-25T08:25:12;100062.50;;;29.15;47.56
12349;BME280;5974;42.710;27.258;2023-05-25T08:27:38;100056.34;;;28.38;48.02
12349;BME280;5974;42.710;27.258;2023-05-25T08:30:06;100051.41;;;28.19;48.72
12349;BME280;5974;42.710;27.258;2023-05-25T08:32:33;100050.97;;;28.07;48.66
12349;BME280;5974;42.710;27.258;2023-05-25T08:35:00;100009.56;;;27.47;52.12
12349;BME280;5974;42.710;27.258;2023-05-25T08:37:27;100050.56;;;28.18;49.89
12349;BME280;5974;42.710;27.258;2023-05-25T08:39:54;100047.06;;;28.18;48.52
12349;BME280;5974;42.710;27.258;2023-05-25T08:42:23;100046.72;;;28.43;46.79
12349;BME280;5974;42.710;27.258;2023-05-25T08:44:50;100042.28;;;28.28;47.50
12349;BME280;5974;42.710;27.258;2023-05-25T08:47:21;100035.19;;;28.35;47.63
12349;BME280;5974;42.710;27.258;2023-05-25T08:49:48;100038.84;;;28.42;46.35
12349;BME280;5974;42.710;27.258;2023-05-25T08:52:20;100041.44;;;28.27;47.15
12349;BME280;5974;42.710;27.258;2023-05-25T08:54:49;100035.34;;;28.11;46.07
12349;BME280;5974;42.710;27.258;2023-05-25T08:57:19;100039.13;;;28.92;44.99
12349;BME280;5974;42.710;27.258;2023-05-25T08:59:54;100025.28;;;28.81;47.62
12349;BME280;5974;42.710;27.258;2023-05-25T09:02:28;100032.22;;;28.22;49.25
12349;BME280;5974;42.710;27.258;2023-05-25T09:04:58;100019.31;;;27.78;49.96
12349;BME280;5974;42.710;27.258;2023-05-25T09:07:26;100014.25;;;27.44;51.24
12349;BME280;5974;42.710;27.258;2023-05-25T09:09:54;100038.25;;;28.77;49.41
12349;BME280;5974;42.710;27.258;2023-05-25T09:12:21;100034.50;;;29.24;48.65
12349;BME280;5974;42.710;27.258;2023-05-25T09:14:48;100022.22;;;29.50;47.86
12349;BME280;5974;42.710;27.258;2023-05-25T09:17:17;100039.22;;;29.22;47.34
12349;BME280;5974;42.710;27.258;2023-05-25T09:19:46;100035.78;;;28.90;46.82
12349;BME280;5974;42.710;27.258;2023-05-25T09:22:13;100041.31;;;29.34;47.53
12349;BME280;5974;42.710;27.258;2023-05-25T09:24:40;100046.00;;;28.49;47.80
12349;BME280;5974;42.710;27.258;2023-05-25T09:27:11;100030.28;;;28.84;51.76
12349;BME280;5974;42.710;27.258;2023-05-25T09:29:38;100037.19;;;29.97;47.37
12349;BME280;5974;42.710;27.258;2023-05-25T09:32:05;100033.66;;;29.67;49.58
12349;BME280;5974;42.710;27.258;2023-05-25T09:34:33;100037.88;;;29.03;54.12
12349;BME280;5974;42.710;27.258;2023-05-25T09:37:02;100036.91;;;29.48;55.89
12349;BME280;5974;42.710;27.258;2023-05-25T09:39:29;100029.06;;;29.09;55.86
12349;BME280;5974;42.710;27.258;2023-05-25T09:41:56;100038.91;;;29.17;55.72
12349;BME280;5974;42.710;27.258;2023-05-25T09:44:23;100032.91;;;29.29;56.66
12349;BME280;5974;42.710;27.258;2023-05-25T09:46:50;100037.28;;;28.93;58.94
12349;BME280;5974;42.710;27.258;2023-05-25T09:49:17;100039.94;;;28.25;60.24
12349;BME280;5974;42.710;27.258;2023-05-25T09:51:46;100044.56;;;28.62;59.55
12349;BME280;5974;42.710;27.258;2023-05-25T09:54:13;100045.22;;;28.72;60.56
12349;BME280;5974;42.710;27.258;2023-05-25T09:56:40;100025.13;;;28.29;60.07
12349;BME280;5974;42.710;27.258;2023-05-25T09:59:07;100036.53;;;28.84;60.89
12349;BME280;5974;42.710;27.258;2023-05-25T10:01:34;100025.03;;;28.90;58.45
12349;BME280;5974;42.710;27.258;2023-05-25T10:04:01;100024.22;;;29.04;59.46
12349;BME280;5974;42.710;27.258;2023-05-25T10:06:29;100009.09;;;29.03;60.97
12349;BME280;5974;42.710;27.258;2023-05-25T10:08:59;100012.94;;;28.64;83.34
12349;BME280;5974;42.710;27.258;2023-05-25T10:11:28;100007.63;;;28.02;82.31
12349;BME280;5974;42.710;27.258;2023-05-25T10:13:55;100015.78;;;27.31;100.00
12349;BME280;5974;42.710;27.258;2023-05-25T10:16:25;100014.31;;;27.04;100.00
12349;BME280;5974;42.710;27.258;2023-05-25T10:18:58;100011.78;;;26.38;100.00
12349;BME280;5974;42.710;27.258;2023-05-25T10:21:28;100009.78;;;26.48;100.00
12349;BME280;5974;42.710;27.258;2023-05-25T10:24:05;100013.31;;;26.97;79.93
12349;BME280;5974;42.710;27.258;2023-05-25T10:26:34;100025.44;;;26.11;81.21
12349;BME280;5974;42.710;27.258;2023-05-25T10:29:06;100023.22;;;25.98;83.80
12349;BME280;5974;42.710;27.258;2023-05-25T10:31:34;100030.44;;;25.56;86.48
12349;BME280;5974;42.710;27.258;2023-05-25T10:34:02;100034.84;;;25.73;93.06
12349;BME280;5974;42.710;27.258;2023-05-25T10:36:30;100036.59;;;26.64;83.88
12349;BME280;5974;42.710;27.258;2023-05-25T10:38:59;100044.97;;;27.34;81.68
12349;BME280;5974;42.710;27.258;2023-05-25T10:41:28;100037.31;;;27.78;81.69
12349;BME280;5974;42.710;27.258;2023-05-25T10:43:56;100041.97;;;26.56;79.67
12349;BME280;5974;42.710;27.258;2023-05-25T10:46:23;100047.78;;;26.19;91.98
12349;BME280;5974;42.710;27.258;2023-05-25T10:48:50;100035.66;;;25.65;97.04
12349;BME280;5974;42.710;27.258;2023-05-25T10:51:18;100044.91;;;25.79;100.00
12349;BME280;5974;42.710;27.258;2023-05-25T10:53:46;99996.25;;;26.00;99.55
12349;BME280;5974;42.710;27.258;2023-05-25T10:56:23;100049.16;;;25.90;100.00
12349;BME280;5974;42.710;27.258;2023-05-25T10:58:52;100037.69;;;25.71;100.00
12349;BME280;5974;42.710;27.258;2023-05-25T11:01:19;100039.16;;;25.14;100.00
12349;BME280;5974;42.710;27.258;2023-05-25T11:03:48;100034.88;;;25.21;100.00
12349;BME280;5974;42.710;27.258;2023-05-25T11:06:16;100029.44;;;24.35;100.00
12349;BME280;5974;42.710;27.258;2023-05-25T11:08:53;100042.75;;;23.99;100.00
12349;BME280;5974;42.710;27.258;2023-05-25T11:11:20;100053.03;;;23.94;100.00
12349;BME280;5974;42.710;27.258;2023-05-25T11:13:48;100058.16;;;24.33;100.00
12349;BME280;5974;42.710;27.258;2023-05-25T11:16:19;100062.91;;;24.56;100.00
12349;BME280;5974;42.710;27.258;2023-05-25T11:18:52;100056.81;;;25.84;100.00
12349;BME280;5974;42.710;27.258;2023-05-25T11:21:41;100057.41;;;26.04;100.00
12349;BME280;5974;42.710;27.258;2023-05-25T11:24:13;100044.44;;;26.25;100.00
12349;BME280;5974;42.710;27.258;2023-05-25T11:27:04;100055.53;;;26.47;95.79
12349;BME280;5974;42.710;27.258;2023-05-25T11:29:33;100052.19;;;25.61;100.00
12349;BME280;5974;42.710;27.258;2023-05-25T11:32:03;100059.84;;;26.31;91.93
12349;BME280;5974;42.710;27.258;2023-05-25T11:34:30;100060.09;;;26.54;87.60
12349;BME280;5974;42.710;27.258;2023-05-25T11:36:58;100061.06;;;26.45;93.40
12349;BME280;5974;42.710;27.258;2023-05-25T11:39:27;100069.00;;;27.43;86.32
12349;BME280;5974;42.710;27.258;2023-05-25T11:41:55;100058.03;;;28.00;84.34
12349;BME280;5974;42.710;27.258;2023-05-25T11:44:26;100048.47;;;27.51;84.35
12349;BME280;5974;42.710;27.258;2023-05-25T11:46:54;100049.47;;;28.35;83.05
12349;BME280;5974;42.710;27.258;2023-05-25T11:49:24;100053.66;;;28.38;77.32
12349;BME280;5974;42.710;27.258;2023-05-25T11:51:51;100047.84;;;28.26;73.52
12349;BME280;5974;42.710;27.258;2023-05-25T11:54:22;100053.31;;;29.09;76.49
12349;BME280;5974;42.710;27.258;2023-05-25T11:56:50;100052.50;;;27.93;80.03
12349;BME280;5974;42.710;27.258;2023-05-25T11:59:17;100051.84;;;27.36;83.57
12349;BME280;5974;42.710;27.258;2023-05-25T12:01:54;100050.06;;;27.13;85.66
12349;BME280;5974;42.710;27.258;2023-05-25T12:04:21;100044.75;;;28.07;85.69
12349;BME280;5974;42.710;27.258;2023-05-25T12:06:49;100042.38;;;28.42;82.74
12349;BME280;5974;42.710;27.258;2023-05-25T12:09:18;100049.56;;;27.80;79.67
12349;BME280;5974;42.710;27.258;2023-05-25T12:11:46;100048.44;;;28.14;78.90
12349;BME280;5974;42.710;27.258;2023-05-25T12:14:13;100047.31;;;27.92;79.64
12349;BME280;5974;42.710;27.258;2023-05-25T12:16:40;100000.19;;;27.18;79.06
12349;BME280;5974;42.710;27.258;2023-05-25T12:19:08;100047.81;;;28.80;73.93
12349;BME280;5974;42.710;27.258;2023-05-25T12:21:37;100036.59;;;28.76;68.99
12349;BME280;5974;42.710;27.258;2023-05-25T12:24:06;100024.47;;;27.49;71.70
12349;BME280;5974;42.710;27.258;2023-05-25T12:26:33;100031.88;;;28.25;71.42
12349;BME280;5974;42.710;27.258;2023-05-25T12:29:02;100024.34;;;27.34;72.33
12349;BME280;5974;42.710;27.258;2023-05-25T12:31:30;100023.63;;;27.49;73.93
12349;BME280;5974;42.710;27.258;2023-05-25T12:34:05;100024.84;;;27.14;75.81
12349;BME280;5974;42.710;27.258;2023-05-25T12:36:51;100022.00;;;27.31;71.17
12349;BME280;5974;42.710;27.258;2023-05-25T12:39:31;100009.47;;;26.91;74.81
12349;BME280;5974;42.710;27.258;2023-05-25T12:42:00;100022.34;;;27.12;73.23
12349;BME280;5974;42.710;27.258;2023-05-25T12:44:28;100029.22;;;26.42;72.58
12349;BME280;5974;42.710;27.258;2023-05-25T12:46:59;100021.84;;;26.60;74.82
12349;BME280;5974;42.710;27.258;2023-05-25T12:49:35;100021.81;;;26.20;74.47
12349;BME280;5974;42.710;27.258;2023-05-25T12:52:03;100030.06;;;25.93;75.73